createdAt,value
2022-10-21T09:08:16.898Z,16.10
2022-10-21T09:10:57.585Z,18.20
2022-10-21T09:13:40.334Z,18.30
2022-10-21T09:16:14.549Z,18.20
2022-10-21T09:18:52.733Z,18.20
2022-10-21T09:21:30.205Z,18.30
2022-10-21T09:24:07.464Z,18.30
2022-10-21T09:26:41.753Z,18.20
2022-10-21T09:29:26.413Z,18.30
2022-10-21T09:32:02.078Z,18.30
2022-10-21T09:34:41.979Z,18.30
2022-10-21T09:37:17.745Z,18.40
2022-10-21T09:39:52.234Z,18.40
2022-10-21T09:42:35.743Z,18.30
2022-10-21T09:45:20.050Z,18.20
2022-10-21T09:47:52.907Z,18.20
2022-10-21T09:50:21.389Z,18.20
2022-10-21T09:52:57.815Z,18.10
2022-10-21T09:55:28.276Z,17.90
2022-10-21T09:58:00.282Z,17.80
2022-10-21T10:00:47.153Z,17.80
2022-10-21T10:03:31.099Z,17.60
2022-10-21T10:05:59.465Z,17.40
2022-10-21T10:08:37.697Z,17.30
2022-10-21T10:11:15.540Z,17.00
2022-10-21T10:13:45.517Z,16.90
2022-10-21T10:16:17.062Z,16.90
2022-10-21T10:18:46.223Z,16.90
2022-10-21T10:21:15.445Z,16.90
2022-10-21T10:23:48.958Z,16.90
2022-10-21T10:26:27.595Z,17.00
2022-10-21T10:28:58.783Z,17.00
2022-10-21T10:31:31.165Z,16.90
2022-10-21T10:34:03.529Z,16.80
2022-10-21T10:36:34.589Z,16.90
2022-10-21T10:39:04.694Z,16.70
2022-10-21T10:41:38.303Z,16.50
2022-10-21T10:44:20.997Z,16.50
2022-10-21T10:46:55.727Z,16.60
2022-10-21T10:49:24.459Z,16.60
2022-10-21T10:52:07.877Z,16.70
2022-10-21T10:54:36.803Z,16.70
2022-10-21T10:57:10.407Z,16.80
2022-10-21T10:59:43.266Z,16.90
2022-10-21T11:02:28.963Z,17.00
2022-10-21T11:05:19.571Z,17.00
2022-10-21T11:07:51.055Z,17.20
2022-10-21T11:10:31.482Z,17.20
2022-10-21T11:13:01.960Z,17.20
2022-10-21T11:15:42.427Z,17.20
2022-10-21T11:18:25.605Z,17.10
2022-10-21T11:21:01.395Z,17.00
2022-10-21T11:23:43.393Z,17.00
2022-10-21T11:26:19.701Z,17.10
2022-10-21T11:28:59.220Z,17.10
2022-10-21T11:31:59.644Z,17.20
2022-10-21T11:34:38.260Z,17.30
2022-10-21T11:37:19.332Z,17.30
2022-10-21T11:39:54.211Z,17.30
2022-10-21T11:42:26.803Z,17.40
2022-10-21T11:45:11.131Z,17.30
2022-10-21T11:47:47.078Z,17.40
2022-10-21T11:50:22.365Z,17.30
2022-10-21T11:53:12.669Z,17.40
2022-10-21T11:55:48.080Z,17.40
2022-10-21T11:58:30.917Z,17.40
2022-10-21T12:01:15.904Z,17.50
2022-10-21T12:04:11.266Z,17.60
2022-10-21T12:06:46.454Z,17.70
2022-10-21T12:09:20.190Z,17.70
2022-10-21T12:11:53.493Z,17.80
2022-10-21T12:14:31.103Z,17.80
2022-10-21T12:17:06.380Z,18.00
2022-10-21T12:19:35.605Z,18.20
2022-10-21T12:22:04.027Z,18.40
2022-10-21T12:24:44.940Z,18.50
2022-10-21T12:27:20.279Z,18.60
2022-10-21T12:30:02.303Z,18.80
2022-10-21T12:32:40.494Z,18.90
2022-10-21T12:35:14.137Z,19.00
2022-10-21T12:38:05.657Z,19.10
2022-10-21T12:40:40.103Z,19.30
2022-10-21T12:43:19.954Z,19.30
2022-10-21T12:46:01.917Z,19.30
2022-10-21T12:48:36.458Z,19.50
2022-10-21T12:51:07.499Z,19.60
2022-10-21T12:53:39.375Z,19.60
2022-10-21T12:56:08.664Z,19.70
2022-10-21T12:58:41.355Z,19.60
2022-10-21T13:01:39.871Z,19.50
2022-10-21T13:04:48.862Z,19.60
2022-10-21T13:07:34.409Z,19.60
2022-10-21T13:10:29.503Z,19.60
2022-10-21T13:13:36.490Z,19.60
2022-10-21T13:16:30.331Z,19.60
2022-10-21T13:19:03.297Z,19.70
2022-10-21T13:21:40.509Z,19.60
2022-10-21T13:24:22.072Z,19.60
2022-10-21T13:26:52.513Z,19.50
2022-10-21T13:29:31.590Z,19.30
2022-10-21T13:32:28.476Z,19.20
2022-10-21T13:35:00.145Z,19.10
2022-10-21T13:37:32.858Z,19.00
2022-10-21T13:40:03.412Z,18.90
2022-10-21T13:42:38.040Z,18.90
2022-10-21T13:45:17.241Z,18.90
2022-10-21T13:47:45.981Z,19.00
2022-10-21T13:50:19.501Z,18.70
2022-10-21T13:52:48.879Z,18.60
2022-10-21T13:55:21.497Z,18.50
2022-10-21T13:57:51.515Z,18.40
2022-10-21T14:00:22.063Z,18.30
2022-10-21T14:02:51.413Z,18.20
2022-10-21T14:05:30.883Z,18.10
2022-10-21T14:08:00.737Z,18.00
2022-10-21T14:10:30.556Z,17.90
2022-10-21T14:15:41.639Z,17.80
2022-10-21T14:18:09.854Z,17.80
2022-10-21T14:20:39.140Z,17.80
2022-10-21T14:23:18.900Z,17.90
2022-10-21T14:25:48.791Z,17.80
2022-10-21T14:28:18.949Z,17.80
2022-10-21T14:30:47.141Z,17.70
2022-10-21T14:33:20.602Z,17.70
2022-10-21T14:36:06.360Z,17.70
2022-10-21T14:38:41.053Z,17.70
2022-10-21T14:41:14.766Z,17.60
2022-10-21T14:43:45.354Z,17.70
2022-10-21T14:46:13.422Z,17.70
2022-10-21T14:48:47.471Z,17.80
2022-10-21T14:51:21.270Z,17.80
2022-10-21T14:53:55.844Z,17.80
2022-10-21T14:56:29.884Z,17.80
2022-10-21T14:58:59.906Z,17.70
2022-10-21T15:01:27.971Z,17.70
2022-10-21T15:03:57.798Z,17.70
2022-10-21T15:06:27.604Z,17.70
2022-10-21T15:09:17.037Z,17.60
2022-10-21T15:11:45.901Z,17.60
2022-10-21T15:14:33.193Z,17.50
2022-10-21T15:17:04.651Z,17.50
2022-10-21T15:19:44.164Z,17.60
2022-10-21T15:22:34.774Z,17.50
2022-10-21T15:25:08.903Z,17.50
2022-10-21T15:27:42.591Z,17.50
2022-10-21T15:30:17.477Z,17.50
2022-10-21T15:32:45.502Z,17.40
2022-10-21T15:35:15.432Z,17.40
2022-10-21T15:37:43.333Z,17.40
2022-10-21T15:40:13.183Z,17.40
2022-10-21T15:42:41.174Z,17.40
2022-10-21T15:45:15.208Z,17.20
2022-10-21T15:47:43.310Z,17.40
2022-10-21T15:50:14.991Z,17.40
2022-10-21T15:52:43.011Z,17.30
2022-10-21T15:55:12.888Z,17.30
2022-10-21T15:57:41.930Z,17.20
2022-10-21T16:00:17.591Z,17.30
2022-10-21T16:02:46.029Z,17.30
2022-10-21T16:05:14.613Z,17.20
2022-10-21T16:07:42.832Z,17.20
2022-10-21T16:10:20.237Z,17.20
2022-10-21T16:12:48.774Z,17.10
2022-10-21T16:15:18.680Z,17.10
2022-10-21T16:17:48.723Z,17.10
2022-10-21T16:20:18.762Z,16.90
2022-10-21T16:22:46.651Z,17.00
2022-10-21T16:25:16.334Z,17.00
2022-10-21T16:27:55.766Z,17.00
2022-10-21T16:30:26.438Z,17.00
2022-10-21T16:32:54.475Z,17.10
2022-10-21T16:35:23.038Z,17.10
2022-10-21T16:37:51.840Z,17.00
2022-10-21T16:40:24.326Z,17.10
2022-10-21T16:42:53.092Z,17.10
2022-10-21T16:45:22.949Z,17.10
2022-10-21T16:47:53.166Z,17.10
2022-10-21T16:50:23.586Z,17.10
2022-10-21T16:52:51.609Z,17.00
2022-10-21T16:55:21.019Z,17.00
2022-10-21T16:57:48.896Z,16.90
2022-10-21T17:00:18.081Z,16.80
2022-10-21T17:02:48.958Z,16.80
2022-10-21T17:05:17.017Z,16.80
2022-10-21T17:07:44.891Z,16.80
2022-10-21T17:10:13.130Z,16.80
2022-10-21T17:12:42.681Z,16.70
2022-10-21T17:15:15.000Z,16.70
2022-10-21T17:17:43.065Z,16.60
2022-10-21T17:20:11.971Z,16.60
2022-10-21T17:22:39.846Z,16.60
2022-10-21T17:25:08.347Z,16.50
2022-10-21T17:27:36.443Z,16.50
2022-10-21T17:30:06.652Z,16.50
2022-10-21T17:32:34.491Z,16.50
2022-10-21T17:35:02.928Z,16.40
2022-10-21T17:37:31.316Z,16.40
2022-10-21T17:39:59.414Z,16.40
2022-10-21T17:42:27.354Z,16.50
2022-10-21T17:44:55.133Z,16.40
2022-10-21T17:47:24.500Z,16.50
2022-10-21T17:49:52.331Z,16.50
2022-10-21T17:52:20.471Z,16.40
2022-10-21T17:54:48.395Z,16.60
2022-10-21T17:57:16.513Z,16.70
2022-10-21T17:59:45.090Z,16.80
2022-10-21T18:02:12.990Z,16.80
2022-10-21T18:04:43.389Z,16.90
2022-10-21T18:07:13.241Z,16.70
2022-10-21T18:09:42.255Z,16.70
2022-10-21T18:12:11.071Z,16.70
2022-10-21T18:14:39.151Z,16.50
2022-10-21T18:17:08.410Z,16.50
2022-10-21T18:19:36.558Z,16.40
2022-10-21T18:22:06.025Z,16.40
2022-10-21T18:24:34.033Z,16.40
2022-10-21T18:27:02.185Z,16.40
2022-10-21T18:29:30.131Z,16.50
2022-10-21T18:31:58.005Z,16.50
2022-10-21T18:34:26.828Z,16.50
2022-10-21T18:36:56.435Z,16.40
2022-10-21T18:39:25.877Z,16.50
2022-10-21T18:41:54.901Z,16.40
2022-10-21T18:44:22.894Z,16.40
2022-10-21T18:46:52.505Z,16.50
2022-10-21T18:49:23.184Z,16.50
2022-10-21T18:51:51.228Z,16.50
2022-10-21T18:54:19.277Z,16.50
2022-10-21T18:56:48.480Z,16.60
2022-10-21T18:59:16.284Z,16.60
2022-10-21T19:01:44.368Z,16.70
2022-10-21T19:06:43.144Z,16.70
2022-10-21T19:09:14.953Z,16.80
2022-10-21T19:11:43.997Z,16.70
2022-10-21T19:14:14.664Z,16.80
2022-10-21T19:16:42.799Z,16.90
2022-10-21T19:19:10.929Z,16.90
2022-10-21T19:21:39.221Z,17.00
2022-10-21T19:24:08.411Z,16.90
2022-10-21T19:26:38.897Z,16.90
2022-10-21T19:29:09.510Z,16.90
2022-10-21T19:31:38.923Z,16.80
2022-10-21T19:34:06.996Z,16.80
2022-10-21T19:36:35.777Z,16.80
2022-10-21T19:39:03.853Z,16.80
2022-10-21T19:41:32.008Z,16.70
2022-10-21T19:44:00.519Z,16.70
2022-10-21T19:46:31.687Z,16.70
2022-10-21T19:49:01.975Z,16.70
2022-10-21T19:51:29.946Z,16.70
2022-10-21T19:53:58.050Z,16.70
2022-10-21T19:56:30.803Z,16.70
2022-10-21T19:59:02.654Z,16.70
2022-10-21T20:01:32.310Z,16.70
2022-10-21T20:04:03.140Z,16.70
2022-10-21T20:06:33.232Z,16.60
2022-10-21T20:09:03.196Z,16.60
2022-10-21T20:11:31.643Z,16.60
2022-10-21T20:13:59.949Z,16.60
2022-10-21T20:16:29.288Z,16.60
2022-10-21T20:18:58.275Z,16.60
2022-10-21T20:21:27.916Z,16.70
2022-10-21T20:23:57.657Z,16.60
2022-10-21T20:26:25.641Z,16.70
2022-10-21T20:28:53.901Z,16.80
2022-10-21T20:31:22.482Z,16.70
2022-10-21T20:33:52.134Z,16.70
2022-10-21T20:36:23.095Z,16.70
2022-10-21T20:38:54.514Z,16.60
